sensor_id;sensor_type;location;lat;lon;timestamp;P1;durP1;ratioP1;P2;durP2;ratioP2
62121;SDS011;48108;47.532;19.084;2022-12-07T04:48:37;24.23;;;12.43;;
62121;SDS011;48108;47.532;19.084;2022-12-07T04:51:40;26.27;;;14.40;;
62121;SDS011;48108;47.532;19.084;2022-12-07T04:54:43;25.95;;;13.10;;
62121;SDS011;48108;47.532;19.084;2022-12-07T04:57:46;16.48;;;9.70;;
62121;SDS011;48108;47.532;19.084;2022-12-07T05:00:48;17.40;;;9.88;;
62121;SDS011;48108;47.532;19.084;2022-12-07T05:03:51;10.30;;;5.87;;
62121;SDS011;48108;47.532;19.084;2022-12-07T05:06:54;10.23;;;6.15;;
62121;SDS011;48108;47.532;19.084;2022-12-07T05:09:57;9.10;;;5.55;;
62121;SDS011;48108;47.532;19.084;2022-12-07T05:12:59;9.98;;;5.62;;
62121;SDS011;48108;47.532;19.084;2022-12-07T05:16:02;6.18;;;4.50;;
62121;SDS011;48108;47.532;19.084;2022-12-07T05:19:05;8.05;;;4.72;;
62121;SDS011;48108;47.532;19.084;2022-12-07T05:22:09;9.23;;;5.18;;
62121;SDS011;48108;47.532;19.084;2022-12-07T05:25:11;12.13;;;6.50;;
62121;SDS011;48108;47.532;19.084;2022-12-07T05:28:14;15.15;;;7.05;;
62121;SDS011;48108;47.532;19.084;2022-12-07T05:31:17;10.23;;;6.53;;
62121;SDS011;48108;47.532;19.084;2022-12-07T05:34:20;8.95;;;5.87;;
62121;SDS011;48108;47.532;19.084;2022-12-07T05:37:22;10.57;;;6.12;;
62121;SDS011;48108;47.532;19.084;2022-12-07T05:40:25;10.27;;;6.00;;
62121;SDS011;48108;47.532;19.084;2022-12-07T05:43:28;10.52;;;5.32;;
62121;SDS011;48108;47.532;19.084;2022-12-07T05:46:31;8.85;;;5.82;;
62121;SDS011;48108;47.532;19.084;2022-12-07T05:49:34;9.32;;;5.12;;
62121;SDS011;48108;47.532;19.084;2022-12-07T05:52:37;8.27;;;5.60;;
62121;SDS011;48108;47.532;19.084;2022-12-07T05:55:39;9.70;;;5.85;;
62121;SDS011;48108;47.532;19.084;2022-12-07T05:58:42;8.80;;;5.62;;
62121;SDS011;48108;47.532;19.084;2022-12-07T06:02:04;7.25;;;5.22;;
62121;SDS011;48108;47.532;19.084;2022-12-07T06:05:09;8.70;;;5.70;;
62121;SDS011;48108;47.532;19.084;2022-12-07T06:08:12;9.52;;;6.00;;
62121;SDS011;48108;47.532;19.084;2022-12-07T06:11:17;7.53;;;5.25;;
62121;SDS011;48108;47.532;19.084;2022-12-07T06:14:38;8.32;;;5.28;;
62121;SDS011;48108;47.532;19.084;2022-12-07T06:17:41;7.57;;;5.10;;
62121;SDS011;48108;47.532;19.084;2022-12-07T06:20:43;8.05;;;4.82;;
62121;SDS011;48108;47.532;19.084;2022-12-07T06:23:46;8.15;;;5.05;;
62121;SDS011;48108;47.532;19.084;2022-12-07T06:26:50;7.68;;;5.25;;
62121;SDS011;48108;47.532;19.084;2022-12-07T06:29:53;11.50;;;5.40;;
62121;SDS011;48108;47.532;19.084;2022-12-07T06:32:55;9.30;;;5.95;;
62121;SDS011;48108;47.532;19.084;2022-12-07T06:35:58;10.55;;;5.70;;
62121;SDS011;48108;47.532;19.084;2022-12-07T06:39:01;10.68;;;6.15;;
62121;SDS011;48108;47.532;19.084;2022-12-07T06:42:04;11.77;;;6.82;;
62121;SDS011;48108;47.532;19.084;2022-12-07T06:45:07;10.27;;;6.75;;
62121;SDS011;48108;47.532;19.084;2022-12-07T06:48:10;11.43;;;6.57;;
62121;SDS011;48108;47.532;19.084;2022-12-07T06:51:13;10.95;;;7.07;;
62121;SDS011;48108;47.532;19.084;2022-12-07T06:54:16;10.98;;;6.70;;
62121;SDS011;48108;47.532;19.084;2022-12-07T06:57:19;23.45;;;12.00;;
62121;SDS011;48108;47.532;19.084;2022-12-07T07:00:24;23.17;;;12.80;;
62121;SDS011;48108;47.532;19.084;2022-12-07T07:03:29;23.12;;;13.02;;
62121;SDS011;48108;47.532;19.084;2022-12-07T07:06:32;23.90;;;13.75;;
62121;SDS011;48108;47.532;19.084;2022-12-07T07:09:35;22.58;;;13.82;;
62121;SDS011;48108;47.532;19.084;2022-12-07T07:12:37;23.60;;;13.27;;
62121;SDS011;48108;47.532;19.084;2022-12-07T07:15:40;25.48;;;14.15;;
62121;SDS011;48108;47.532;19.084;2022-12-07T07:18:43;25.45;;;14.43;;
62121;SDS011;48108;47.532;19.084;2022-12-07T07:21:46;25.80;;;14.40;;
62121;SDS011;48108;47.532;19.084;2022-12-07T07:24:48;26.83;;;14.32;;
62121;SDS011;48108;47.532;19.084;2022-12-07T07:27:51;24.83;;;14.68;;
62121;SDS011;48108;47.532;19.084;2022-12-07T07:30:54;25.52;;;14.25;;
62121;SDS011;48108;47.532;19.084;2022-12-07T07:33:56;27.62;;;15.18;;
62121;SDS011;48108;47.532;19.084;2022-12-07T07:37:02;25.30;;;13.77;;
62121;SDS011;48108;47.532;19.084;2022-12-07T07:40:05;26.05;;;13.88;;
62121;SDS011;48108;47.532;19.084;2022-12-07T07:43:09;27.02;;;13.88;;
62121;SDS011;48108;47.532;19.084;2022-12-07T07:46:11;22.67;;;11.93;;
62121;SDS011;48108;47.532;19.084;2022-12-07T07:49:14;24.02;;;13.27;;
62121;SDS011;48108;47.532;19.084;2022-12-07T07:52:17;26.80;;;14.13;;
62121;SDS011;48108;47.532;19.084;2022-12-07T07:55:19;26.25;;;13.27;;
62121;SDS011;48108;47.532;19.084;2022-12-07T07:58:25;25.35;;;14.35;;
62121;SDS011;48108;47.532;19.084;2022-12-07T08:01:28;34.20;;;18.08;;
62121;SDS011;48108;47.532;19.084;2022-12-07T08:04:31;33.17;;;18.25;;
62121;SDS011;48108;47.532;19.084;2022-12-07T08:07:33;26.95;;;15.52;;
62121;SDS011;48108;47.532;19.084;2022-12-07T08:10:36;26.98;;;15.98;;
62121;SDS011;48108;47.532;19.084;2022-12-07T08:13:39;28.77;;;15.88;;
62121;SDS011;48108;47.532;19.084;2022-12-07T08:16:42;31.62;;;16.95;;
62121;SDS011;48108;47.532;19.084;2022-12-07T08:19:44;29.12;;;16.90;;
62121;SDS011;48108;47.532;19.084;2022-12-07T08:22:47;28.65;;;16.92;;
62121;SDS011;48108;47.532;19.084;2022-12-07T08:25:50;30.80;;;16.98;;
62121;SDS011;48108;47.532;19.084;2022-12-07T08:28:52;31.17;;;16.33;;
62121;SDS011;48108;47.532;19.084;2022-12-07T08:32:02;26.73;;;15.57;;
62121;SDS011;48108;47.532;19.084;2022-12-07T08:35:11;26.23;;;16.30;;
62121;SDS011;48108;47.532;19.084;2022-12-07T08:38:13;25.55;;;15.23;;
62121;SDS011;48108;47.532;19.084;2022-12-07T08:41:16;26.95;;;15.93;;
62121;SDS011;48108;47.532;19.084;2022-12-07T08:44:19;31.00;;;16.00;;
62121;SDS011;48108;47.532;19.084;2022-12-07T08:47:21;29.42;;;16.10;;
62121;SDS011;48108;47.532;19.084;2022-12-07T08:50:25;25.05;;;15.25;;
62121;SDS011;48108;47.532;19.084;2022-12-07T08:53:30;24.05;;;14.90;;
62121;SDS011;48108;47.532;19.084;2022-12-07T08:56:33;25.25;;;15.68;;
62121;SDS011;48108;47.532;19.084;2022-12-07T08:59:37;23.85;;;13.73;;
62121;SDS011;48108;47.532;19.084;2022-12-07T09:02:39;18.60;;;12.25;;
62121;SDS011;48108;47.532;19.084;2022-12-07T09:05:42;20.45;;;11.05;;
62121;SDS011;48108;47.532;19.084;2022-12-07T09:08:48;17.83;;;9.88;;
62121;SDS011;48108;47.532;19.084;2022-12-07T09:11:56;17.02;;;10.13;;
62121;SDS011;48108;47.532;19.084;2022-12-07T09:14:59;15.30;;;8.85;;
62121;SDS011;48108;47.532;19.084;2022-12-07T09:18:04;13.35;;;8.40;;
62121;SDS011;48108;47.532;19.084;2022-12-07T09:21:06;10.90;;;7.55;;
62121;SDS011;48108;47.532;19.084;2022-12-07T09:24:09;17.15;;;9.32;;
62121;SDS011;48108;47.532;19.084;2022-12-07T09:27:14;11.05;;;7.43;;
62121;SDS011;48108;47.532;19.084;2022-12-07T09:30:18;13.88;;;7.85;;
62121;SDS011;48108;47.532;19.084;2022-12-07T09:33:20;13.38;;;7.72;;
62121;SDS011;48108;47.532;19.084;2022-12-07T09:36:23;12.23;;;7.53;;
62121;SDS011;48108;47.532;19.084;2022-12-07T09:39:27;14.68;;;7.85;;
62121;SDS011;48108;47.532;19.084;2022-12-07T09:42:34;12.88;;;8.32;;
62121;SDS011;48108;47.532;19.084;2022-12-07T09:45:39;11.95;;;7.87;;
62121;SDS011;48108;47.532;19.084;2022-12-07T09:48:49;17.20;;;8.75;;
62121;SDS011;48108;47.532;19.084;2022-12-07T09:52:00;12.80;;;7.62;;
62121;SDS011;48108;47.532;19.084;2022-12-07T09:55:09;12.50;;;7.78;;
62121;SDS011;48108;47.532;19.084;2022-12-07T09:58:19;14.13;;;7.53;;
62121;SDS011;48108;47.532;19.084;2022-12-07T10:01:24;11.25;;;6.47;;
62121;SDS011;48108;47.532;19.084;2022-12-07T10:04:27;11.50;;;7.50;;
62121;SDS011;48108;47.532;19.084;2022-12-07T10:07:31;11.75;;;6.87;;
62121;SDS011;48108;47.532;19.084;2022-12-07T10:10:35;10.18;;;6.93;;
62121;SDS011;48108;47.532;19.084;2022-12-07T10:13:42;10.75;;;6.78;;
62121;SDS011;48108;47.532;19.084;2022-12-07T10:16:52;9.25;;;6.12;;
62121;SDS011;48108;47.532;19.084;2022-12-07T10:20:14;11.12;;;6.82;;
62121;SDS011;48108;47.532;19.084;2022-12-07T10:23:20;11.48;;;7.00;;
62121;SDS011;48108;47.532;19.084;2022-12-07T10:26:33;7.82;;;5.95;;
62121;SDS011;48108;47.532;19.084;2022-12-07T10:29:38;10.25;;;5.97;;
62121;SDS011;48108;47.532;19.084;2022-12-07T10:32:41;7.78;;;5.30;;
62121;SDS011;48108;47.532;19.084;2022-12-07T10:35:44;6.97;;;5.10;;
62121;SDS011;48108;47.532;19.084;2022-12-07T10:38:51;9.50;;;5.87;;
62121;SDS011;48108;47.532;19.084;2022-12-07T10:42:03;7.82;;;5.40;;
62121;SDS011;48108;47.532;19.084;2022-12-07T10:45:17;8.73;;;5.53;;
62121;SDS011;48108;47.532;19.084;2022-12-07T10:52:04;7.25;;;5.65;;
62121;SDS011;48108;47.532;19.084;2022-12-07T10:55:22;8.20;;;5.53;;
62121;SDS011;48108;47.532;19.084;2022-12-07T11:05:21;7.53;;;5.72;;
62121;SDS011;48108;47.532;19.084;2022-12-07T11:12:13;9.05;;;5.80;;
62121;SDS011;48108;47.532;19.084;2022-12-07T11:15:28;10.27;;;5.70;;
62121;SDS011;48108;47.532;19.084;2022-12-07T11:22:29;8.32;;;5.60;;
62121;SDS011;48108;47.532;19.084;2022-12-07T11:35:45;9.40;;;6.15;;
62121;SDS011;48108;47.532;19.084;2022-12-07T11:38:56;9.73;;;6.20;;
62121;SDS011;48108;47.532;19.084;2022-12-07T11:42:04;8.52;;;6.10;;
62121;SDS011;48108;47.532;19.084;2022-12-07T11:45:27;8.50;;;5.82;;
62121;SDS011;48108;47.532;19.084;2022-12-07T11:48:37;9.85;;;6.10;;
62121;SDS011;48108;47.532;19.084;2022-12-07T11:51:44;10.55;;;6.00;;
62121;SDS011;48108;47.532;19.084;2022-12-07T11:54:49;10.02;;;6.20;;
62121;SDS011;48108;47.532;19.084;2022-12-07T11:57:58;9.20;;;5.93;;
62121;SDS011;48108;47.532;19.084;2022-12-07T12:07:42;8.00;;;5.40;;
62121;SDS011;48108;47.532;19.084;2022-12-07T12:14:53;9.10;;;5.05;;
62121;SDS011;48108;47.532;19.084;2022-12-07T12:21:26;8.05;;;5.00;;
62121;SDS011;48108;47.532;19.084;2022-12-07T12:24:31;9.93;;;6.65;;
62121;SDS011;48108;47.532;19.084;2022-12-07T12:27:39;7.78;;;5.93;;
62121;SDS011;48108;47.532;19.084;2022-12-07T12:30:42;13.20;;;6.97;;
62121;SDS011;48108;47.532;19.084;2022-12-07T12:33:46;9.75;;;6.55;;
62121;SDS011;48108;47.532;19.084;2022-12-07T12:36:52;9.20;;;6.20;;
62121;SDS011;48108;47.532;19.084;2022-12-07T12:46:50;8.38;;;5.97;;
62121;SDS011;48108;47.532;19.084;2022-12-07T12:53:21;6.62;;;5.32;;
62121;SDS011;48108;47.532;19.084;2022-12-07T12:56:29;6.57;;;4.95;;
62121;SDS011;48108;47.532;19.084;2022-12-07T12:59:55;6.75;;;5.37;;
62121;SDS011;48108;47.532;19.084;2022-12-07T13:03:05;6.97;;;5.43;;
62121;SDS011;48108;47.532;19.084;2022-12-07T13:06:18;8.57;;;5.70;;
62121;SDS011;48108;47.532;19.084;2022-12-07T13:09:24;9.02;;;5.60;;
62121;SDS011;48108;47.532;19.084;2022-12-07T13:12:30;7.95;;;5.40;;
62121;SDS011;48108;47.532;19.084;2022-12-07T13:16:36;9.80;;;5.97;;
62121;SDS011;48108;47.532;19.084;2022-12-07T13:22:47;7.85;;;5.22;;
62121;SDS011;48108;47.532;19.084;2022-12-07T13:25:56;6.80;;;4.62;;
62121;SDS011;48108;47.532;19.084;2022-12-07T13:29:11;6.50;;;5.07;;
62121;SDS011;48108;47.532;19.084;2022-12-07T13:32:26;10.45;;;5.75;;
62121;SDS011;48108;47.532;19.084;2022-12-07T13:35:33;9.55;;;5.65;;
62121;SDS011;48108;47.532;19.084;2022-12-07T13:38:37;7.32;;;5.20;;
62121;SDS011;48108;47.532;19.084;2022-12-07T13:41:41;7.60;;;5.35;;
62121;SDS011;48108;47.532;19.084;2022-12-07T13:44:45;8.65;;;6.15;;
62121;SDS011;48108;47.532;19.084;2022-12-07T13:47:49;8.80;;;5.87;;
62121;SDS011;48108;47.532;19.084;2022-12-07T13:51:00;12.30;;;6.43;;
62121;SDS011;48108;47.532;19.084;2022-12-07T13:54:12;9.23;;;6.18;;
62121;SDS011;48108;47.532;19.084;2022-12-07T13:57:16;11.45;;;6.37;;
62121;SDS011;48108;47.532;19.084;2022-12-07T14:00:23;11.20;;;6.20;;
62121;SDS011;48108;47.532;19.084;2022-12-07T14:03:32;10.70;;;5.68;;
62121;SDS011;48108;47.532;19.084;2022-12-07T14:06:36;11.12;;;6.47;;
62121;SDS011;48108;47.532;19.084;2022-12-07T14:09:54;10.48;;;6.40;;
62121;SDS011;48108;47.532;19.084;2022-12-07T14:12:59;10.45;;;6.53;;
62121;SDS011;48108;47.532;19.084;2022-12-07T14:16:03;10.98;;;6.03;;
62121;SDS011;48108;47.532;19.084;2022-12-07T14:22:54;11.25;;;6.00;;
62121;SDS011;48108;47.532;19.084;2022-12-07T14:26:18;11.80;;;6.37;;
62121;SDS011;48108;47.532;19.084;2022-12-07T14:32:28;10.02;;;6.72;;
62121;SDS011;48108;47.532;19.084;2022-12-07T14:35:34;12.40;;;6.40;;
62121;SDS011;48108;47.532;19.084;2022-12-07T14:38:42;13.95;;;7.40;;
62121;SDS011;48108;47.532;19.084;2022-12-07T14:41:45;14.43;;;6.62;;
62121;SDS011;48108;47.532;19.084;2022-12-07T14:44:55;10.25;;;6.50;;
62121;SDS011;48108;47.532;19.084;2022-12-07T14:47:59;17.92;;;7.05;;
62121;SDS011;48108;47.532;19.084;2022-12-07T14:51:21;16.58;;;7.18;;
62121;SDS011;48108;47.532;19.084;2022-12-07T14:54:44;15.50;;;6.70;;
62121;SDS011;48108;47.532;19.084;2022-12-07T14:57:46;17.60;;;7.18;;
62121;SDS011;48108;47.532;19.084;2022-12-07T15:00:49;10.70;;;6.35;;
62121;SDS011;48108;47.532;19.084;2022-12-07T15:03:52;9.65;;;6.60;;
62121;SDS011;48108;47.532;19.084;2022-12-07T15:06:56;15.27;;;6.85;;
62121;SDS011;48108;47.532;19.084;2022-12-07T15:10:02;12.77;;;6.03;;
62121;SDS011;48108;47.532;19.084;2022-12-07T15:13:06;12.07;;;6.07;;
62121;SDS011;48108;47.532;19.084;2022-12-07T15:16:27;12.25;;;6.60;;
62121;SDS011;48108;47.532;19.084;2022-12-07T15:19:50;11.88;;;6.37;;
62121;SDS011;48108;47.532;19.084;2022-12-07T15:22:53;12.65;;;6.55;;
62121;SDS011;48108;47.532;19.084;2022-12-07T15:25:56;14.73;;;6.68;;
62121;SDS011;48108;47.532;19.084;2022-12-07T15:28:59;12.73;;;6.70;;
62121;SDS011;48108;47.532;19.084;2022-12-07T15:32:02;10.40;;;6.40;;
62121;SDS011;48108;47.532;19.084;2022-12-07T15:35:05;14.38;;;7.30;;
62121;SDS011;48108;47.532;19.084;2022-12-07T15:38:08;12.37;;;6.35;;
62121;SDS011;48108;47.532;19.084;2022-12-07T15:41:10;11.70;;;6.45;;
62121;SDS011;48108;47.532;19.084;2022-12-07T15:44:14;12.15;;;7.05;;
62121;SDS011;48108;47.532;19.084;2022-12-07T15:47:36;14.05;;;7.28;;
62121;SDS011;48108;47.532;19.084;2022-12-07T15:51:04;12.80;;;6.75;;
62121;SDS011;48108;47.532;19.084;2022-12-07T15:54:11;13.60;;;7.53;;
62121;SDS011;48108;47.532;19.084;2022-12-07T15:57:32;15.32;;;7.37;;
62121;SDS011;48108;47.532;19.084;2022-12-07T16:00:37;13.23;;;7.20;;
62121;SDS011;48108;47.532;19.084;2022-12-07T16:03:40;13.77;;;6.87;;
62121;SDS011;48108;47.532;19.084;2022-12-07T16:06:42;12.25;;;8.23;;
62121;SDS011;48108;47.532;19.084;2022-12-07T16:09:46;16.77;;;7.85;;
62121;SDS011;48108;47.532;19.084;2022-12-07T16:12:49;14.02;;;6.62;;
62121;SDS011;48108;47.532;19.084;2022-12-07T16:15:52;15.68;;;7.15;;
62121;SDS011;48108;47.532;19.084;2022-12-07T16:18:55;18.90;;;7.50;;
62121;SDS011;48108;47.532;19.084;2022-12-07T16:21:57;17.70;;;7.35;;
62121;SDS011;48108;47.532;19.084;2022-12-07T16:25:01;18.58;;;8.38;;
62121;SDS011;48108;47.532;19.084;2022-12-07T16:28:04;15.93;;;7.03;;
62121;SDS011;48108;47.532;19.084;2022-12-07T16:31:08;18.77;;;8.18;;
62121;SDS011;48108;47.532;19.084;2022-12-07T16:34:14;13.15;;;7.25;;
62121;SDS011;48108;47.532;19.084;2022-12-07T16:37:17;14.02;;;6.95;;
62121;SDS011;48108;47.532;19.084;2022-12-07T16:40:20;18.48;;;7.95;;
62121;SDS011;48108;47.532;19.084;2022-12-07T16:43:22;10.45;;;6.93;;
62121;SDS011;48108;47.532;19.084;2022-12-07T16:46:25;15.75;;;7.57;;
62121;SDS011;48108;47.532;19.084;2022-12-07T16:49:28;14.85;;;7.50;;
62121;SDS011;48108;47.532;19.084;2022-12-07T16:52:31;13.55;;;6.65;;
62121;SDS011;48108;47.532;19.084;2022-12-07T16:55:41;15.63;;;7.03;;
62121;SDS011;48108;47.532;19.084;2022-12-07T16:58:46;15.32;;;7.85;;
62121;SDS011;48108;47.532;19.084;2022-12-07T17:01:50;13.23;;;6.97;;
62121;SDS011;48108;47.532;19.084;2022-12-07T17:04:54;11.93;;;6.93;;
62121;SDS011;48108;47.532;19.084;2022-12-07T17:07:56;18.87;;;8.10;;
62121;SDS011;48108;47.532;19.084;2022-12-07T17:11:00;14.20;;;7.03;;
62121;SDS011;48108;47.532;19.084;2022-12-07T17:14:02;16.77;;;7.12;;
62121;SDS011;48108;47.532;19.084;2022-12-07T17:17:24;15.43;;;7.18;;
62121;SDS011;48108;47.532;19.084;2022-12-07T17:20:27;15.10;;;7.93;;
62121;SDS011;48108;47.532;19.084;2022-12-07T17:23:30;15.25;;;8.27;;
62121;SDS011;48108;47.532;19.084;2022-12-07T17:26:33;14.63;;;7.57;;
62121;SDS011;48108;47.532;19.084;2022-12-07T17:29:37;16.08;;;8.32;;
